createdAt,value
2022-10-07T08:02:13.214Z,14.50
2022-10-07T08:04:43.680Z,14.60
2022-10-07T08:07:13.262Z,14.60
2022-10-07T08:09:43.918Z,14.80
2022-10-07T08:12:11.514Z,14.80
2022-10-07T08:14:39.001Z,14.90
2022-10-07T08:17:06.805Z,15.00
2022-10-07T08:19:34.634Z,15.10
2022-10-07T08:22:04.039Z,15.10
2022-10-07T08:24:32.036Z,15.00
2022-10-07T08:26:59.073Z,15.00
2022-10-07T08:29:26.088Z,15.10
2022-10-07T08:31:53.111Z,15.10
2022-10-07T08:34:20.023Z,15.10
2022-10-07T08:36:48.715Z,15.20
2022-10-07T08:39:16.245Z,15.30
2022-10-07T08:41:57.909Z,15.30
2022-10-07T08:44:36.953Z,15.30
2022-10-07T08:47:06.852Z,15.50
2022-10-07T08:50:06.205Z,15.50
2022-10-07T08:52:35.764Z,15.50
2022-10-07T08:55:02.827Z,15.50
2022-10-07T08:57:46.462Z,15.50
2022-10-07T09:00:18.670Z,15.50
2022-10-07T09:02:58.403Z,15.60
2022-10-07T09:05:39.056Z,15.50
2022-10-07T09:08:36.935Z,15.60
2022-10-07T09:11:15.837Z,15.70
2022-10-07T09:13:48.743Z,15.70
2022-10-07T09:16:27.043Z,15.80
2022-10-07T09:18:57.763Z,15.90
2022-10-07T09:22:05.296Z,16.00
2022-10-07T09:24:34.586Z,16.00
2022-10-07T09:27:11.912Z,16.10
2022-10-07T09:29:38.935Z,16.10
2022-10-07T09:32:05.903Z,16.10
2022-10-07T09:34:32.840Z,16.10
2022-10-07T09:37:13.381Z,16.20
2022-10-07T09:39:41.919Z,16.20
2022-10-07T09:42:39.937Z,16.30
2022-10-07T09:45:25.318Z,16.30
2022-10-07T09:47:55.629Z,16.30
2022-10-07T09:50:33.559Z,16.40
2022-10-07T09:53:02.295Z,16.60
2022-10-07T09:55:37.753Z,16.70
2022-10-07T09:58:19.059Z,16.90
2022-10-07T10:00:51.585Z,17.00
2022-10-07T10:03:19.920Z,17.10
2022-10-07T10:05:54.933Z,17.10
2022-10-07T10:08:26.085Z,17.20
2022-10-07T10:10:58.503Z,17.30
2022-10-07T10:13:31.466Z,17.30
2022-10-07T10:15:59.454Z,17.30
2022-10-07T10:18:34.293Z,17.30
2022-10-07T10:21:21.093Z,17.40
2022-10-07T10:23:51.157Z,17.50
2022-10-07T10:26:43.235Z,17.50
2022-10-07T10:29:29.519Z,17.60
2022-10-07T10:32:20.985Z,17.60
2022-10-07T10:35:14.937Z,17.70
2022-10-07T10:37:48.037Z,17.80
2022-10-07T10:40:37.320Z,17.70
2022-10-07T10:43:10.245Z,17.70
2022-10-07T10:45:40.195Z,17.70
2022-10-07T10:48:07.232Z,17.70
2022-10-07T10:50:34.200Z,17.70
2022-10-07T10:53:21.318Z,17.70
2022-10-07T10:56:06.474Z,17.80
2022-10-07T10:58:47.478Z,17.70
2022-10-07T11:01:36.610Z,17.80
2022-10-07T11:04:15.970Z,17.80
2022-10-07T11:06:46.694Z,17.80
2022-10-07T11:09:30.798Z,17.80
2022-10-07T11:12:03.685Z,17.80
2022-10-07T11:14:33.048Z,17.90
2022-10-07T11:17:05.023Z,17.90
2022-10-07T11:19:53.775Z,17.90
2022-10-07T11:22:32.477Z,18.00
2022-10-07T11:25:09.212Z,18.30
2022-10-07T11:27:36.356Z,18.30
2022-10-07T11:30:06.678Z,18.30
2022-10-07T11:32:50.244Z,18.50
2022-10-07T11:35:33.196Z,18.70
2022-10-07T11:38:14.720Z,18.70
2022-10-07T11:41:08.489Z,18.70
2022-10-07T11:43:49.836Z,18.70
2022-10-07T11:46:32.650Z,18.90
2022-10-07T11:49:11.652Z,19.10
2022-10-07T11:51:41.037Z,19.10
2022-10-07T11:54:16.317Z,19.10
2022-10-07T11:56:56.120Z,19.10
2022-10-07T11:59:50.152Z,19.20
2022-10-07T12:02:29.517Z,19.50
2022-10-07T12:04:57.831Z,19.50
2022-10-07T12:07:39.006Z,19.40
2022-10-07T12:10:24.065Z,19.50
2022-10-07T12:12:52.781Z,19.50
2022-10-07T12:15:36.973Z,19.60
2022-10-07T12:18:28.559Z,19.70
2022-10-07T12:21:01.982Z,19.70
2022-10-07T12:23:31.057Z,19.70
2022-10-07T12:26:04.898Z,19.80
2022-10-07T12:28:45.993Z,19.80
2022-10-07T12:31:13.262Z,19.90
2022-10-07T12:33:46.379Z,19.90
2022-10-07T12:36:22.318Z,19.80
2022-10-07T12:39:12.266Z,19.80
2022-10-07T12:41:46.333Z,19.90
2022-10-07T12:44:31.136Z,19.90
2022-10-07T12:47:11.172Z,19.80
2022-10-07T12:49:48.840Z,19.90
2022-10-07T12:52:19.571Z,19.90
2022-10-07T12:54:56.863Z,19.90
2022-10-07T12:57:29.839Z,20.00
2022-10-07T13:00:11.682Z,20.00
2022-10-07T13:02:59.906Z,19.90
2022-10-07T13:05:44.913Z,19.90
2022-10-07T13:08:23.870Z,20.00
2022-10-07T13:11:12.173Z,20.00
2022-10-07T13:13:48.099Z,19.90
2022-10-07T13:16:46.596Z,19.90
2022-10-07T13:19:18.929Z,19.80
2022-10-07T13:22:15.312Z,19.80
2022-10-07T13:24:51.117Z,19.80
2022-10-07T13:27:29.370Z,19.90
2022-10-07T13:29:58.319Z,19.90
2022-10-07T13:32:30.523Z,19.90
2022-10-07T13:34:59.528Z,19.90
2022-10-07T13:37:32.439Z,19.90
2022-10-07T13:40:21.845Z,20.00
2022-10-07T13:42:56.683Z,19.90
2022-10-07T13:45:23.937Z,19.80
2022-10-07T13:47:51.279Z,19.70
2022-10-07T13:50:22.830Z,19.60
2022-10-07T13:52:50.506Z,19.60
2022-10-07T13:55:31.202Z,19.50
2022-10-07T13:58:01.880Z,19.40
2022-10-07T14:00:29.753Z,19.30
2022-10-07T14:02:56.707Z,19.30
2022-10-07T14:05:29.957Z,19.20
2022-10-07T14:08:11.494Z,19.20
2022-10-07T14:10:50.715Z,19.10
2022-10-07T14:13:18.027Z,19.10
2022-10-07T14:15:49.689Z,19.10
2022-10-07T14:18:17.758Z,19.10
2022-10-07T14:20:56.982Z,19.10
2022-10-07T14:23:33.913Z,19.10
2022-10-07T14:26:06.293Z,19.00
2022-10-07T14:28:35.411Z,18.90
2022-10-07T14:31:26.682Z,18.90
2022-10-07T14:34:15.997Z,19.00
2022-10-07T14:37:09.484Z,18.90
2022-10-07T14:39:45.291Z,18.90
2022-10-07T14:42:14.021Z,18.80
2022-10-07T14:44:44.437Z,18.70
2022-10-07T14:47:17.692Z,18.60
2022-10-07T14:49:44.665Z,18.60
2022-10-07T14:52:29.663Z,18.60
2022-10-07T14:55:04.682Z,18.50
2022-10-07T14:57:31.763Z,18.40
2022-10-07T14:59:58.645Z,18.40
2022-10-07T15:02:25.957Z,18.30
2022-10-07T15:04:53.220Z,18.20
2022-10-07T15:07:21.391Z,18.30
2022-10-07T15:09:48.420Z,18.30
2022-10-07T15:12:16.731Z,18.30
2022-10-07T15:14:43.617Z,18.40
2022-10-07T15:17:14.855Z,18.30
2022-10-07T15:19:41.985Z,18.20
2022-10-07T15:22:08.809Z,18.20
2022-10-07T15:24:35.984Z,18.20
2022-10-07T15:27:03.011Z,18.10
2022-10-07T15:29:29.882Z,18.00
2022-10-07T15:31:56.991Z,18.00
2022-10-07T15:34:24.052Z,18.00
2022-10-07T15:36:50.839Z,17.90
2022-10-07T15:39:17.702Z,18.00
2022-10-07T15:41:45.023Z,18.00
2022-10-07T15:44:16.331Z,17.90
2022-10-07T15:46:44.498Z,17.90
2022-10-07T15:49:11.530Z,18.00
2022-10-07T15:51:38.903Z,18.00
2022-10-07T15:54:06.687Z,18.00
2022-10-07T15:56:34.065Z,18.00
2022-10-07T15:59:02.063Z,17.90
2022-10-07T16:01:31.972Z,17.90
2022-10-07T16:04:01.182Z,17.90
2022-10-07T16:06:33.448Z,17.80
2022-10-07T16:09:01.597Z,17.80
2022-10-07T16:11:30.553Z,17.70
2022-10-07T16:13:59.932Z,17.70
2022-10-07T16:16:27.989Z,17.70
2022-10-07T16:18:57.599Z,17.70
2022-10-07T16:21:30.587Z,17.70
2022-10-07T16:24:19.099Z,17.60
2022-10-07T16:26:47.519Z,17.60
2022-10-07T16:29:36.243Z,17.60
2022-10-07T16:32:04.201Z,17.50
2022-10-07T16:34:31.018Z,17.60
2022-10-07T16:36:58.938Z,17.50
2022-10-07T16:39:25.988Z,17.50
2022-10-07T16:41:53.089Z,17.50
2022-10-07T16:44:21.092Z,17.50
2022-10-07T16:46:48.802Z,17.40
2022-10-07T16:49:17.831Z,17.40
2022-10-07T16:51:45.925Z,17.30
2022-10-07T16:54:17.320Z,17.30
2022-10-07T16:56:47.789Z,17.30
2022-10-07T16:59:23.926Z,17.30
2022-10-07T17:01:55.008Z,17.20
2022-10-07T17:04:22.289Z,17.20
2022-10-07T17:06:49.445Z,17.20
2022-10-07T17:09:17.822Z,17.10
2022-10-07T17:11:45.210Z,17.10
2022-10-07T17:14:16.338Z,17.00
2022-10-07T17:16:48.736Z,17.10
2022-10-07T17:19:18.226Z,17.00
2022-10-07T17:21:47.800Z,16.90
2022-10-07T17:24:16.805Z,16.90
2022-10-07T17:26:44.556Z,16.80
2022-10-07T17:29:13.867Z,16.80
2022-10-07T17:31:47.065Z,16.80
2022-10-07T17:34:16.165Z,16.70
2022-10-07T17:36:43.858Z,16.70
2022-10-07T17:39:11.223Z,16.70
2022-10-07T17:41:39.231Z,16.70
2022-10-07T17:44:11.552Z,16.70
2022-10-07T17:46:40.570Z,16.60
2022-10-07T17:49:10.013Z,16.60
2022-10-07T17:51:37.527Z,16.50
2022-10-07T17:54:06.063Z,16.50
2022-10-07T17:56:34.581Z,16.50
2022-10-07T17:59:02.287Z,16.50
2022-10-07T18:01:34.236Z,16.50
2022-10-07T18:04:06.808Z,16.40
2022-10-07T18:06:36.556Z,16.40
2022-10-07T18:09:07.758Z,16.30
2022-10-07T18:11:53.723Z,16.30
2022-10-07T18:14:39.623Z,16.30
2022-10-07T18:17:08.229Z,16.30
2022-10-07T18:19:35.410Z,16.20
2022-10-07T18:22:05.370Z,16.20
2022-10-07T18:24:32.278Z,16.10
2022-10-07T18:27:00.829Z,16.10
2022-10-07T18:29:29.314Z,16.10
2022-10-07T18:31:56.686Z,16.10
2022-10-07T18:34:24.333Z,16.00
2022-10-07T18:36:55.910Z,16.10
2022-10-07T18:39:23.106Z,16.00
2022-10-07T18:41:49.894Z,16.00
2022-10-07T18:44:16.857Z,15.90
2022-10-07T18:46:43.795Z,15.90
2022-10-07T18:49:13.662Z,15.90
2022-10-07T18:51:41.057Z,15.90
2022-10-07T18:54:08.097Z,15.90
2022-10-07T18:56:40.600Z,15.90
2022-10-07T18:59:09.730Z,15.80
2022-10-07T19:01:37.539Z,15.80
2022-10-07T19:04:06.624Z,15.80
2022-10-07T19:06:36.141Z,15.70
2022-10-07T19:09:07.168Z,15.70
2022-10-07T19:11:35.483Z,15.70
2022-10-07T19:14:02.475Z,15.70
2022-10-07T19:16:34.437Z,15.60
2022-10-07T19:19:17.144Z,15.60
2022-10-07T19:21:46.360Z,15.50
2022-10-07T19:24:14.680Z,15.50
2022-10-07T19:26:45.198Z,15.50
2022-10-07T19:29:13.611Z,15.50
2022-10-07T19:31:43.547Z,15.50
2022-10-07T19:34:12.828Z,15.40
2022-10-07T19:36:42.390Z,15.40
2022-10-07T19:39:10.791Z,15.40
2022-10-07T19:41:37.846Z,15.30
2022-10-07T19:44:05.523Z,15.40
2022-10-07T19:46:33.669Z,15.40
2022-10-07T19:49:02.523Z,15.40
2022-10-07T19:51:31.142Z,15.30
2022-10-07T19:54:00.041Z,15.30
2022-10-07T19:56:32.639Z,15.20
2022-10-07T19:59:06.139Z,15.20
2022-10-07T20:01:36.721Z,15.20
2022-10-07T20:04:04.984Z,15.20
2022-10-07T20:06:32.208Z,15.20
2022-10-07T20:08:59.467Z,15.20
2022-10-07T20:11:27.886Z,15.20
2022-10-07T20:13:55.113Z,15.20
2022-10-07T20:16:24.766Z,15.20
2022-10-07T20:19:02.212Z,15.20
2022-10-07T20:21:29.831Z,15.20
2022-10-07T20:23:56.956Z,15.10
2022-10-07T20:26:26.203Z,15.10
2022-10-07T20:28:55.818Z,15.10
2022-10-07T20:31:25.888Z,15.10
2022-10-07T20:33:54.779Z,15.10
2022-10-07T20:36:24.679Z,15.10
2022-10-07T20:39:14.755Z,15.00
2022-10-07T20:42:07.221Z,15.10
2022-10-07T20:44:36.549Z,15.10
2022-10-07T20:47:08.797Z,15.00
2022-10-07T20:49:38.577Z,15.00
2022-10-07T20:52:11.111Z,15.00
2022-10-07T20:54:38.043Z,15.00
2022-10-07T20:57:05.257Z,15.10
2022-10-07T20:59:32.636Z,14.90
2022-10-07T21:02:00.176Z,15.00
2022-10-07T21:04:28.550Z,15.00
2022-10-07T21:06:57.079Z,15.00
2022-10-07T21:09:24.940Z,15.00
2022-10-07T21:11:52.819Z,15.00
2022-10-07T21:14:20.543Z,15.00
2022-10-07T21:16:48.343Z,15.10
2022-10-07T21:19:16.618Z,15.00
2022-10-07T21:21:43.632Z,15.10
2022-10-07T21:24:11.161Z,15.10
2022-10-07T21:26:38.176Z,15.10
2022-10-07T21:29:08.313Z,15.10
2022-10-07T21:31:35.848Z,15.10
2022-10-07T21:34:10.707Z,15.10
2022-10-07T21:36:39.066Z,15.10
2022-10-07T21:39:06.336Z,15.10
2022-10-07T21:41:35.907Z,15.10
2022-10-07T21:44:06.086Z,15.10
2022-10-07T21:46:34.290Z,15.10
2022-10-07T21:49:01.262Z,15.10
2022-10-07T21:51:29.631Z,15.10
2022-10-07T21:53:59.727Z,15.20
2022-10-07T21:56:29.242Z,15.20
2022-10-07T21:58:57.810Z,15.20
2022-10-07T22:01:25.275Z,15.10
2022-10-07T22:04:05.223Z,15.10
2022-10-07T22:06:51.211Z,15.20
2022-10-07T22:09:21.143Z,15.20
2022-10-07T22:11:49.226Z,15.20
2022-10-07T22:14:18.648Z,15.20
2022-10-07T22:16:48.318Z,15.10
2022-10-07T22:19:17.618Z,15.10
2022-10-07T22:21:45.741Z,15.10
2022-10-07T22:24:13.161Z,15.00
2022-10-07T22:26:43.706Z,15.10
2022-10-07T22:29:13.528Z,15.10
2022-10-07T22:31:40.548Z,15.00
2022-10-07T22:34:07.693Z,15.00
2022-10-07T22:36:36.861Z,15.00
2022-10-07T22:39:04.084Z,15.00
2022-10-07T22:41:31.043Z,15.00
2022-10-07T22:43:59.264Z,15.00
